Time;durP1;ratioP1;P1;durP2;ratioP2;P2;SDS_P1;SDS_P2;PMS_P1;PMS_P2;Temp;Humidity;BMP_temperature;BMP_pressure;BME280_temperature;BME280_humidity;BME280_pressure;Samples;Min_cycle;Max_cycle;Signal;HPM_P1;HPM_P2
2022/10/23 00:00:09;;;;;;;5.87;4.97;;;13.10;99.90;;;;;;5009874;28;20190;-54
2022/10/23 00:02:36;;;;;;;7.65;4.10;;;13.20;99.90;;;;;;5013554;28;20186;-54
2022/10/23 00:05:02;;;;;;;6.55;4.10;;;13.30;99.90;;;;;;5011270;28;20302;-55
2022/10/23 00:07:28;;;;;;;4.73;3.87;;;13.50;99.90;;;;;;5005743;28;20338;-53
2022/10/23 00:09:54;;;;;;;6.15;3.80;;;13.40;99.90;;;;;;5012946;28;20442;-52
2022/10/23 00:12:20;;;;;;;5.83;4.20;;;13.40;99.90;;;;;;5008042;28;20210;-54
2022/10/23 00:14:45;;;;;;;5.43;3.80;;;13.30;99.90;;;;;;5007770;28;20675;-54
2022/10/23 00:17:11;;;;;;;5.10;3.83;;;13.00;99.90;;;;;;5009545;28;20255;-54
2022/10/23 00:19:37;;;;;;;7.53;4.07;;;13.10;99.90;;;;;;5010210;28;20664;-53
2022/10/23 00:22:03;;;;;;;4.90;4.33;;;13.30;99.90;;;;;;5008535;28;20190;-52
2022/10/23 00:24:29;;;;;;;5.00;4.30;;;12.80;99.90;;;;;;5009454;28;20211;-54
2022/10/23 00:26:54;;;;;;;4.47;4.07;;;12.90;99.90;;;;;;4975542;28;20482;-52
2022/10/23 00:29:20;;;;;;;5.37;4.80;;;12.70;99.90;;;;;;5008164;28;20237;-54
2022/10/23 00:31:46;;;;;;;4.03;3.67;;;12.90;99.90;;;;;;5009944;28;20219;-54
2022/10/23 00:34:11;;;;;;;4.40;4.00;;;12.80;99.90;;;;;;5008893;28;20230;-54
2022/10/23 00:36:38;;;;;;;5.30;4.13;;;13.00;99.90;;;;;;5004213;28;20660;-54
2022/10/23 00:39:05;;;;;;;4.70;3.88;;;12.90;99.90;;;;;;5010380;28;20548;-54
2022/10/23 00:41:31;;;;;;;5.90;3.80;;;12.90;99.90;;;;;;5008909;28;20179;-52
2022/10/23 00:44:26;;;;;;;4.33;3.93;;;13.20;99.90;;;;;;5005211;28;20203;-54
2022/10/23 00:46:52;;;;;;;4.95;3.40;;;13.00;99.90;;;;;;5010523;28;20449;-53
2022/10/23 00:49:19;;;;;;;4.63;3.97;;;12.70;99.90;;;;;;5013572;28;20281;-53
2022/10/23 00:51:55;;;;;;;5.03;3.78;;;13.20;99.90;;;;;;5014593;28;20206;-53
2022/10/23 00:54:24;;;;;;;4.50;3.72;;;12.80;99.90;;;;;;5009620;28;20210;-53
2022/10/23 00:56:52;;;;;;;4.85;3.90;;;13.00;99.90;;;;;;5009237;28;20190;-53
2022/10/23 00:59:18;;;;;;;4.45;3.72;;;13.00;99.90;;;;;;5006151;28;20579;-53
2022/10/23 01:01:43;;;;;;;7.80;3.47;;;12.60;99.90;;;;;;5009558;28;20253;-53
2022/10/23 01:04:10;;;;;;;4.63;3.33;;;12.80;99.90;;;;;;5011689;28;20225;-53
2022/10/23 01:06:44;;;;;;;4.57;4.10;;;12.80;99.90;;;;;;5009962;28;20324;-53
2022/10/23 01:09:30;;;;;;;5.30;3.25;;;12.80;99.90;;;;;;5009020;28;20575;-53
2022/10/23 01:12:14;;;;;;;5.25;3.80;;;13.00;99.90;;;;;;5012375;28;20210;-53
2022/10/23 01:14:49;;;;;;;3.90;3.35;;;12.70;99.90;;;;;;5014009;28;20290;-53
2022/10/23 01:17:36;;;;;;;5.43;3.90;;;12.60;99.90;;;;;;5016308;28;20176;-53
2022/10/23 01:20:35;;;;;;;4.40;3.70;;;12.60;99.90;;;;;;5008707;28;20205;-53
2022/10/23 01:23:25;;;;;;;4.35;3.88;;;12.50;99.90;;;;;;5014210;28;20556;-53
2022/10/23 01:25:53;;;;;;;8.18;3.70;;;12.90;99.90;;;;;;5011074;28;20553;-53
2022/10/23 01:28:44;;;;;;;3.78;3.10;;;12.90;99.90;;;;;;5013477;28;20194;-53
2022/10/23 01:31:16;;;;;;;4.00;3.20;;;12.50;99.90;;;;;;5016908;28;20207;-53
2022/10/23 01:33:51;;;;;;;4.90;4.10;;;12.50;99.90;;;;;;4997777;28;20263;-53
2022/10/23 01:36:19;;;;;;;4.03;3.63;;;12.50;99.90;;;;;;5016189;28;20598;-53
2022/10/23 01:39:01;;;;;;;5.95;3.40;;;12.50;99.90;;;;;;5011092;28;20632;-53
2022/10/23 01:41:33;;;;;;;4.70;4.15;;;12.50;99.90;;;;;;5013127;28;20213;-53
2022/10/23 01:44:13;;;;;;;4.13;3.30;;;12.20;99.90;;;;;;5008219;28;20230;-53
2022/10/23 01:46:40;;;;;;;5.65;4.30;;;12.50;99.90;;;;;;5020251;28;20197;-53
2022/10/23 01:49:10;;;;;;;4.65;4.15;;;12.40;99.90;;;;;;5009199;28;20657;-53
2022/10/23 01:51:39;;;;;;;6.97;3.83;;;12.70;99.90;;;;;;4994975;28;20561;-53
2022/10/23 01:54:09;;;;;;;4.15;3.47;;;12.40;99.90;;;;;;5010680;28;20207;-53
2022/10/23 01:56:38;;;;;;;5.32;3.85;;;12.30;99.90;;;;;;5012591;28;20183;-53
2022/10/23 01:59:08;;;;;;;5.75;3.92;;;12.30;99.90;;;;;;5010623;28;20546;-52
2022/10/23 02:01:36;;;;;;;5.65;3.58;;;12.10;99.90;;;;;;5013196;28;20197;-53
2022/10/23 02:04:07;;;;;;;5.00;3.40;;;12.50;99.90;;;;;;5008639;28;20284;-53
2022/10/23 02:06:33;;;;;;;7.07;3.80;;;12.50;99.90;;;;;;5008576;28;20223;-53
2022/10/23 02:08:59;;;;;;;8.45;3.83;;;12.40;99.90;;;;;;5012931;28;20204;-53
2022/10/23 02:11:25;;;;;;;7.67;4.93;;;12.30;99.90;;;;;;5014244;28;20182;-53
2022/10/23 02:14:34;;;;;;;6.25;3.92;;;12.20;99.90;;;;;;5014758;28;20232;-53
2022/10/23 02:17:20;;;;;;;3.38;3.05;;;12.30;99.90;;;;;;4992305;28;20189;-53
2022/10/23 02:20:34;;;;;;;9.38;3.60;;;12.20;99.90;;;;;;5002751;28;20674;-53
2022/10/23 02:23:30;;;;;;;5.22;3.42;;;12.10;99.90;;;;;;4951366;28;20200;-53
2022/10/23 02:26:22;;;;;;;7.90;4.25;;;12.30;99.90;;;;;;4991425;28;20197;-53
2022/10/23 02:28:54;;;;;;;4.47;4.00;;;12.00;99.90;;;;;;5009706;28;20194;-53
2022/10/23 02:31:22;;;;;;;4.53;3.40;;;12.00;99.90;;;;;;5010532;28;20221;-53
2022/10/23 02:33:48;;;;;;;5.25;3.53;;;12.10;99.90;;;;;;5011938;28;20217;-53
2022/10/23 02:36:34;;;;;;;5.82;4.03;;;11.90;99.90;;;;;;5011998;28;20194;-53
2022/10/23 02:39:00;;;;;;;7.32;3.50;;;12.20;99.90;;;;;;5016712;28;20630;-53
2022/10/23 02:41:56;;;;;;;4.40;3.93;;;12.20;99.90;;;;;;5012297;28;20194;-53
2022/10/23 02:44:37;;;;;;;4.82;3.90;;;12.10;99.90;;;;;;5005337;28;20214;-53
2022/10/23 02:47:12;;;;;;;7.63;4.05;;;12.00;99.90;;;;;;5020231;28;20261;-52
2022/10/23 02:50:12;;;;;;;8.27;3.72;;;12.20;99.90;;;;;;5016869;28;20189;-53
2022/10/23 02:52:56;;;;;;;8.82;5.50;;;11.90;99.90;;;;;;5006108;28;20365;-53
2022/10/23 02:55:24;;;;;;;5.05;3.50;;;12.10;99.90;;;;;;5014369;28;20209;-53
2022/10/23 02:58:00;;;;;;;3.63;2.90;;;12.30;99.90;;;;;;5011432;28;20209;-53
2022/10/23 03:00:29;;;;;;;4.68;3.50;;;12.20;99.90;;;;;;5010867;28;20202;-53
2022/10/23 03:02:57;;;;;;;3.53;3.20;;;12.20;99.90;;;;;;5007683;28;20186;-53
2022/10/23 03:05:29;;;;;;;6.57;4.13;;;12.20;99.90;;;;;;5013516;28;20219;-53
2022/10/23 03:07:55;;;;;;;3.78;3.22;;;12.20;99.90;;;;;;5009619;28;20194;-53
2022/10/23 03:10:21;;;;;;;3.35;3.05;;;12.40;99.90;;;;;;5015293;28;20284;-54
2022/10/23 03:12:47;;;;;;;5.80;5.20;;;12.40;99.90;;;;;;5007521;28;20289;-52
2022/10/23 03:15:14;;;;;;;3.55;3.10;;;12.30;99.90;;;;;;5011331;28;20463;-52
2022/10/23 03:17:40;;;;;;;3.53;2.97;;;12.40;99.90;;;;;;5011195;28;20425;-53
2022/10/23 03:20:07;;;;;;;3.60;2.93;;;12.30;99.90;;;;;;5012647;28;20213;-53
2022/10/23 03:22:34;;;;;;;3.95;2.80;;;12.30;99.90;;;;;;5008502;28;20287;-54
2022/10/23 03:25:00;;;;;;;3.30;3.00;;;12.70;99.90;;;;;;5010284;28;20220;-52
2022/10/23 03:27:26;;;;;;;4.30;3.90;;;12.00;99.90;;;;;;5009458;28;20696;-53
2022/10/23 03:29:51;;;;;;;4.20;3.30;;;12.20;99.90;;;;;;5011385;28;20631;-53
2022/10/23 03:32:17;;;;;;;5.53;4.07;;;12.20;99.90;;;;;;5012134;28;20630;-52
2022/10/23 03:34:43;;;;;;;5.67;4.57;;;12.50;99.90;;;;;;5015246;28;20216;-52
2022/10/23 03:37:08;;;;;;;8.43;4.50;;;12.60;99.90;;;;;;5009250;28;20196;-52
2022/10/23 03:39:34;;;;;;;5.43;3.70;;;12.20;99.90;;;;;;5013384;28;20204;-52
2022/10/23 03:42:00;;;;;;;6.50;3.30;;;12.40;99.90;;;;;;5010106;28;20513;-52
2022/10/23 03:44:25;;;;;;;3.60;3.17;;;12.20;99.90;;;;;;5006570;28;20209;-52
2022/10/23 03:46:51;;;;;;;5.57;3.33;;;12.20;99.90;;;;;;5008857;28;20185;-52
2022/10/23 03:49:16;;;;;;;4.23;3.27;;;12.20;99.90;;;;;;5013611;28;20216;-52
2022/10/23 03:51:43;;;;;;;3.33;2.87;;;12.30;99.90;;;;;;5010765;28;20214;-53
2022/10/23 03:54:10;;;;;;;4.53;3.20;;;12.20;99.90;;;;;;5006570;28;20208;-52
2022/10/23 03:56:35;;;;;;;2.40;2.20;;;12.30;99.90;;;;;;5001649;28;20196;-52
2022/10/23 03:59:01;;;;;;;3.10;2.80;;;12.50;99.90;;;;;;5008600;28;20566;-53
2022/10/23 04:01:28;;;;;;;3.40;2.97;;;12.40;99.90;;;;;;5015522;28;20196;-53
2022/10/23 04:03:54;;;;;;;4.78;2.97;;;12.50;99.90;;;;;;5009411;28;20218;-52
2022/10/23 04:06:19;;;;;;;5.93;2.47;;;12.40;99.90;;;;;;5014205;28;20182;-52
2022/10/23 04:08:45;;;;;;;2.97;2.77;;;12.30;99.90;;;;;;5007911;28;20189;-52
2022/10/23 04:11:11;;;;;;;3.97;2.95;;;12.40;99.90;;;;;;5010615;28;20541;-53
2022/10/23 04:13:37;;;;;;;5.43;3.47;;;12.40;99.90;;;;;;4993165;28;20275;-53
2022/10/23 04:16:02;;;;;;;4.73;3.37;;;12.50;99.90;;;;;;5010042;28;20186;-52
2022/10/23 04:18:28;;;;;;;3.57;3.27;;;12.40;99.90;;;;;;5010808;28;20194;-52
2022/10/23 04:20:54;;;;;;;4.10;2.70;;;12.50;99.90;;;;;;5008719;28;20441;-53
2022/10/23 04:23:19;;;;;;;3.50;2.37;;;12.30;99.90;;;;;;5010399;28;20190;-52
2022/10/23 04:25:45;;;;;;;4.37;2.97;;;12.00;99.90;;;;;;5011359;28;20213;-52
2022/10/23 04:28:11;;;;;;;3.00;2.70;;;12.30;99.90;;;;;;4991919;28;20191;-53
2022/10/23 04:30:37;;;;;;;6.30;2.50;;;12.50;99.90;;;;;;5008814;28;20538;-52
2022/10/23 04:33:03;;;;;;;5.15;2.65;;;12.50;99.90;;;;;;5010176;28;20579;-52
2022/10/23 04:35:28;;;;;;;2.80;2.53;;;12.40;99.90;;;;;;4993496;28;20209;-53
2022/10/23 04:37:54;;;;;;;2.70;2.50;;;12.00;99.90;;;;;;5007613;28;20190;-52
2022/10/23 04:40:20;;;;;;;5.53;2.47;;;12.50;99.90;;;;;;5009989;28;20229;-52
2022/10/23 04:42:46;;;;;;;2.97;2.70;;;12.40;99.90;;;;;;4990814;28;20594;-52
2022/10/23 04:45:13;;;;;;;4.67;2.90;;;12.60;99.90;;;;;;5012024;28;20212;-51
2022/10/23 04:47:39;;;;;;;2.90;2.70;;;12.80;99.90;;;;;;5006889;28;20220;-52
2022/10/23 04:50:05;;;;;;;3.00;2.80;;;13.00;99.90;;;;;;5005334;28;20218;-52
2022/10/23 04:52:31;;;;;;;3.15;2.85;;;12.80;99.90;;;;;;5008928;28;20216;-52
2022/10/23 04:54:56;;;;;;;4.30;2.77;;;12.70;99.90;;;;;;5011398;28;20660;-53
2022/10/23 04:57:22;;;;;;;3.00;2.80;;;12.60;99.90;;;;;;5008650;28;20193;-52
2022/10/23 04:59:48;;;;;;;3.20;2.70;;;12.70;99.90;;;;;;5013755;28;20185;-52
2022/10/23 05:02:13;;;;;;;3.40;2.63;;;13.40;99.90;;;;;;5009748;28;20207;-53
2022/10/23 05:04:39;;;;;;;7.30;2.30;;;12.70;99.90;;;;;;5003414;28;20305;-52
2022/10/23 05:07:05;;;;;;;5.30;2.80;;;12.70;99.90;;;;;;5009019;28;20179;-53
2022/10/23 05:09:30;;;;;;;3.40;2.70;;;12.60;99.90;;;;;;5010763;28;20575;-52
2022/10/23 05:11:56;;;;;;;3.60;2.80;;;12.70;99.90;;;;;;5008254;28;20223;-52
2022/10/23 05:14:22;;;;;;;3.27;3.00;;;13.00;99.90;;;;;;4992885;28;20209;-55
2022/10/23 05:16:54;;;;;;;3.83;2.33;;;12.70;99.90;;;;;;5009670;28;20221;-53
2022/10/23 05:19:28;;;;;;;2.72;2.53;;;12.60;99.90;;;;;;5011459;28;20187;-52
2022/10/23 05:21:55;;;;;;;2.92;2.60;;;12.70;99.90;;;;;;5008200;28;20195;-53
2022/10/23 05:24:25;;;;;;;4.05;2.60;;;12.80;99.90;;;;;;5011746;28;20215;-53
2022/10/23 05:26:51;;;;;;;4.47;3.33;;;12.70;99.90;;;;;;5011041;28;20254;-53
2022/10/23 05:29:20;;;;;;;5.13;3.00;;;12.60;99.90;;;;;;5005047;28;20260;-53
2022/10/23 05:31:48;;;;;;;3.75;2.63;;;12.50;99.90;;;;;;5002407;28;20184;-53
2022/10/23 05:34:16;;;;;;;3.42;3.13;;;12.70;99.90;;;;;;5009235;28;20205;-53
2022/10/23 05:36:42;;;;;;;3.53;2.83;;;12.50;99.90;;;;;;5010465;28;20245;-53
2022/10/23 05:39:08;;;;;;;4.80;2.95;;;12.90;99.90;;;;;;5010627;28;20195;-53
2022/10/23 05:41:34;;;;;;;4.17;3.53;;;12.80;99.90;;;;;;5009067;28;20187;-53
2022/10/23 05:44:00;;;;;;;4.30;3.08;;;12.60;99.90;;;;;;5004794;28;20203;-53
2022/10/23 05:46:26;;;;;;;3.40;3.10;;;12.70;99.90;;;;;;5009303;28;20183;-53
2022/10/23 05:48:52;;;;;;;4.72;3.05;;;12.90;99.90;;;;;;5010442;28;20193;-53
2022/10/23 05:51:21;;;;;;;6.27;3.10;;;12.50;99.90;;;;;;5013229;28;20202;-53
2022/10/23 05:53:51;;;;;;;3.08;2.80;;;12.50;99.90;;;;;;5011628;28;20487;-52
2022/10/23 05:56:17;;;;;;;4.00;3.30;;;12.70;99.90;;;;;;5011138;28;20186;-52
2022/10/23 05:58:43;;;;;;;3.25;3.05;;;12.50;99.90;;;;;;5008223;28;20187;-53
2022/10/23 06:01:12;;;;;;;5.57;3.17;;;12.50;99.90;;;;;;5012657;28;20175;-53
2022/10/23 06:03:38;;;;;;;5.22;3.50;;;12.60;99.90;;;;;;5012448;28;20445;-52
2022/10/23 06:06:05;;;;;;;6.18;3.55;;;12.50;99.90;;;;;;5010985;28;20179;-52
2022/10/23 06:08:31;;;;;;;8.20;3.45;;;12.60;99.90;;;;;;5009949;28;20194;-53
2022/10/23 06:10:57;;;;;;;4.03;3.25;;;12.60;99.90;;;;;;5013616;28;20184;-52
2022/10/23 06:13:23;;;;;;;5.00;2.80;;;12.80;99.90;;;;;;5005354;28;20210;-53
2022/10/23 06:15:49;;;;;;;4.73;3.30;;;12.70;99.90;;;;;;5010007;28;20191;-52
2022/10/23 06:18:15;;;;;;;2.90;2.60;;;12.70;99.90;;;;;;5007423;28;20450;-52
2022/10/23 06:20:40;;;;;;;2.77;2.57;;;12.70;99.90;;;;;;5011876;28;20474;-52
2022/10/23 06:23:07;;;;;;;7.30;3.20;;;12.60;99.90;;;;;;5010094;28;21040;-52
2022/10/23 06:25:32;;;;;;;7.57;3.38;;;12.80;99.90;;;;;;5012659;28;20276;-52
2022/10/23 06:27:58;;;;;;;3.77;2.80;;;12.90;99.90;;;;;;5005965;28;20648;-52
2022/10/23 06:30:24;;;;;;;5.40;2.90;;;12.60;99.90;;;;;;4995323;28;20566;-52
2022/10/23 06:32:50;;;;;;;6.00;3.13;;;12.80;99.90;;;;;;5007284;28;20477;-52
2022/10/23 06:35:16;;;;;;;5.70;3.13;;;13.00;99.90;;;;;;5005783;28;20225;-52
2022/10/23 06:37:42;;;;;;;5.00;3.40;;;13.10;99.90;;;;;;5011810;28;20504;-53
2022/10/23 06:40:08;;;;;;;5.17;2.73;;;12.80;99.90;;;;;;5011518;28;20217;-53
2022/10/23 06:42:34;;;;;;;2.95;2.67;;;12.80;99.90;;;;;;5006254;28;20183;-53
2022/10/23 06:45:01;;;;;;;3.25;2.95;;;13.10;99.90;;;;;;5008525;28;20245;-53
2022/10/23 06:47:27;;;;;;;3.47;3.13;;;12.90;99.90;;;;;;4987697;28;20190;-53
2022/10/23 06:49:52;;;;;;;3.17;2.93;;;13.00;99.90;;;;;;5010453;28;20194;-53
2022/10/23 06:52:18;;;;;;;3.00;2.80;;;13.20;99.90;;;;;;5009716;28;20236;-53
2022/10/23 06:54:44;;;;;;;3.33;2.83;;;13.60;99.90;;;;;;5012265;28;20205;-53
2022/10/23 06:57:09;;;;;;;3.30;2.97;;;13.20;99.90;;;;;;5008391;28;20187;-53
2022/10/23 06:59:35;;;;;;;3.77;2.83;;;13.30;99.90;;;;;;5008127;28;20266;-53
2022/10/23 07:02:01;;;;;;;7.20;3.30;;;13.50;99.90;;;;;;5008268;28;20210;-55
2022/10/23 07:04:26;;;;;;;4.60;2.77;;;13.70;99.90;;;;;;5009107;28;20733;-52
2022/10/23 07:06:56;;;;;;;7.30;3.17;;;13.70;99.90;;;;;;5004822;28;20195;-54
2022/10/23 07:09:22;;;;;;;3.65;3.35;;;13.90;99.90;;;;;;5009990;28;20652;-59
2022/10/23 07:11:47;;;;;;;3.25;2.95;;;13.90;99.90;;;;;;5005928;28;20179;-55
2022/10/23 07:14:13;;;;;;;4.93;2.40;;;14.20;99.90;;;;;;5004446;28;20198;-54
2022/10/23 07:16:39;;;;;;;3.50;2.70;;;14.20;99.90;;;;;;4990379;28;22261;-58
2022/10/23 07:19:05;;;;;;;3.40;2.77;;;14.30;99.90;;;;;;5010030;28;20222;-61
2022/10/23 07:21:35;;;;;;;3.95;2.65;;;14.60;99.90;;;;;;5009233;28;20195;-59
2022/10/23 07:24:02;;;;;;;4.15;2.50;;;14.60;99.90;;;;;;5006431;28;20576;-62
2022/10/23 07:26:29;;;;;;;5.03;2.45;;;14.40;99.90;;;;;;5008951;28;20191;-59
2022/10/23 07:28:54;;;;;;;5.07;2.20;;;14.40;99.90;;;;;;4999108;28;20217;-65
2022/10/23 07:31:22;;;;;;;5.70;2.60;;;15.10;99.90;;;;;;5008856;28;20442;-60
2022/10/23 07:33:48;;;;;;;4.68;2.28;;;15.10;99.90;;;;;;5010471;28;20210;-59
2022/10/23 07:36:13;;;;;;;2.92;2.60;;;15.20;99.90;;;;;;5008778;28;20183;-59
2022/10/23 07:38:39;;;;;;;2.83;2.37;;;15.10;99.90;;;;;;5002999;28;20703;-57
2022/10/23 07:41:05;;;;;;;2.80;2.60;;;15.00;99.90;;;;;;5010257;28;20187;-54
2022/10/23 07:43:31;;;;;;;3.75;2.65;;;15.30;99.90;;;;;;5006104;28;20504;-54
2022/10/23 07:45:57;;;;;;;4.20;2.40;;;15.40;99.90;;;;;;5008333;28;20187;-53
2022/10/23 07:48:23;;;;;;;2.47;2.27;;;15.60;99.90;;;;;;5002623;28;20490;-54
2022/10/23 07:50:50;;;;;;;4.40;2.80;;;15.70;99.90;;;;;;5006378;28;20191;-53
2022/10/23 07:53:21;;;;;;;6.40;2.53;;;15.70;99.90;;;;;;5018323;28;20215;-54
2022/10/23 07:56:01;;;;;;;2.80;2.30;;;16.10;99.90;;;;;;5010278;28;20194;-53
2022/10/23 07:58:28;;;;;;;3.60;2.40;;;15.90;99.90;;;;;;5007285;28;20186;-54
2022/10/23 08:00:59;;;;;;;2.67;2.42;;;16.40;99.90;;;;;;5005212;28;20191;-54
2022/10/23 08:03:27;;;;;;;2.88;2.05;;;16.20;99.90;;;;;;5006661;28;20260;-54
2022/10/23 08:05:54;;;;;;;2.72;2.45;;;16.70;99.90;;;;;;5005495;28;20198;-54
2022/10/23 08:08:21;;;;;;;2.85;2.28;;;16.50;99.90;;;;;;5007322;28;20205;-53
2022/10/23 08:10:47;;;;;;;2.90;2.60;;;16.60;99.90;;;;;;5004340;28;20207;-53
2022/10/23 08:13:13;;;;;;;3.55;2.30;;;16.70;99.90;;;;;;5004673;28;20198;-53
2022/10/23 08:15:40;;;;;;;4.80;2.53;;;17.00;99.90;;;;;;5009046;28;20917;-54
2022/10/23 08:18:06;;;;;;;4.90;3.17;;;16.70;99.90;;;;;;5009816;28;20186;-53
2022/10/23 08:20:33;;;;;;;7.18;5.07;;;16.90;99.90;;;;;;5007898;28;20277;-53
2022/10/23 08:22:59;;;;;;;3.50;3.20;;;16.60;99.90;;;;;;5005943;28;20225;-54
2022/10/23 08:25:26;;;;;;;3.50;3.20;;;16.80;99.90;;;;;;5009585;28;20205;-53
2022/10/23 08:27:52;;;;;;;4.13;3.70;;;17.00;99.90;;;;;;5004684;28;20505;-53
2022/10/23 08:30:17;;;;;;;4.53;3.13;;;17.30;99.90;;;;;;5009137;28;20183;-54
2022/10/23 08:32:43;;;;;;;5.90;5.30;;;16.90;99.90;;;;;;5009659;28;20206;-54
2022/10/23 08:35:09;;;;;;;5.60;3.80;;;17.40;99.90;;;;;;5010286;28;20599;-55
2022/10/23 08:37:34;;;;;;;6.33;4.13;;;17.30;99.90;;;;;;5002869;28;20269;-55
2022/10/23 08:40:00;;;;;;;9.53;8.23;;;17.70;99.90;;;;;;5009532;28;21561;-54
2022/10/23 08:42:26;;;;;;;6.07;4.10;;;17.60;99.90;;;;;;5008069;28;20194;-55
2022/10/23 08:45:15;;;;;;;4.60;3.17;;;17.70;99.90;;;;;;5013353;28;20202;-54
2022/10/23 08:47:45;;;;;;;4.20;3.80;;;17.90;99.90;;;;;;5006529;28;20939;-55
2022/10/23 08:50:35;;;;;;;5.18;3.60;;;17.90;99.90;;;;;;5009065;28;20201;-54
2022/10/23 08:53:13;;;;;;;5.45;3.88;;;18.10;99.90;;;;;;4991895;28;20561;-55
2022/10/23 08:55:54;;;;;;;4.15;3.75;;;18.00;99.90;;;;;;5004551;28;20217;-55
2022/10/23 08:59:09;;;;;;;3.15;2.95;;;18.00;99.90;;;;;;5009120;28;20193;-55
2022/10/23 09:01:43;;;;;;;4.15;3.75;;;18.00;99.90;;;;;;4985180;28;20277;-55
2022/10/23 09:04:11;;;;;;;4.25;3.70;;;17.90;99.90;;;;;;5002913;28;20246;-55
2022/10/23 09:06:55;;;;;;;3.75;3.45;;;18.10;99.90;;;;;;5008473;28;20256;-55
2022/10/23 09:09:31;;;;;;;4.07;3.67;;;18.10;99.90;;;;;;5006418;28;20213;-55
2022/10/23 09:12:06;;;;;;;4.80;3.70;;;18.30;99.90;;;;;;5002719;28;20222;-54
2022/10/23 09:14:37;;;;;;;5.00;4.03;;;18.40;99.90;;;;;;5003835;28;20279;-54
2022/10/23 09:17:39;;;;;;;4.75;4.15;;;18.40;99.90;;;;;;5006404;28;20191;-55
2022/10/23 09:20:30;;;;;;;3.95;3.33;;;18.70;99.90;;;;;;4986260;28;20207;-55
2022/10/23 09:23:14;;;;;;;3.97;3.58;;;18.70;99.90;;;;;;5002620;28;20198;-55
2022/10/23 09:25:41;;;;;;;3.80;3.50;;;18.80;99.90;;;;;;5010313;28;20201;-55
2022/10/23 09:28:20;;;;;;;4.30;3.50;;;18.70;99.90;;;;;;5010458;28;20190;-54
2022/10/23 09:30:47;;;;;;;4.25;3.85;;;18.80;99.90;;;;;;5012561;28;20183;-54
2022/10/23 09:33:17;;;;;;;5.78;4.57;;;19.00;99.90;;;;;;5006884;28;20565;-55
2022/10/23 09:35:59;;;;;;;3.78;3.10;;;19.20;99.90;;;;;;5014075;28;20563;-55
2022/10/23 09:38:37;;;;;;;3.38;3.08;;;19.30;99.90;;;;;;5011747;28;20186;-55
2022/10/23 09:41:19;;;;;;;2.90;2.70;;;19.30;99.90;;;;;;5008370;28;20171;-55
2022/10/23 09:43:45;;;;;;;4.22;3.65;;;19.40;99.90;;;;;;5011100;28;20671;-55
2022/10/23 09:46:11;;;;;;;3.77;3.07;;;19.40;99.90;;;;;;5009701;28;20255;-54
2022/10/23 09:48:38;;;;;;;6.73;3.23;;;19.40;99.90;;;;;;5011008;28;20536;-55
2022/10/23 09:51:19;;;;;;;3.25;2.63;;;19.50;99.90;;;;;;5014336;28;21260;-54
2022/10/23 09:53:50;;;;;;;4.72;2.70;;;19.60;99.90;;;;;;5013485;28;20745;-55
2022/10/23 09:56:54;;;;;;;3.63;3.33;;;19.60;99.90;;;;;;5013652;28;20324;-55
2022/10/23 09:59:27;;;;;;;3.25;2.70;;;19.60;99.90;;;;;;4934373;29;20568;-54
2022/10/23 10:02:03;;;;;;;4.43;2.72;;;19.70;99.90;;;;;;4934262;29;20186;-54
2022/10/23 10:04:52;;;;;;;2.72;2.50;;;19.90;99.90;;;;;;4984798;28;20671;-55
2022/10/23 10:07:21;;;;;;;2.88;2.67;;;20.00;99.90;;;;;;5010243;28;20240;-55
2022/10/23 10:09:47;;;;;;;3.35;2.60;;;20.40;99.90;;;;;;5011718;28;20250;-55
2022/10/23 10:12:38;;;;;;;3.50;2.80;;;20.70;99.40;;;;;;4992353;28;20619;-55
2022/10/23 10:15:25;;;;;;;3.35;2.92;;;21.10;98.40;;;;;;5012729;28;20446;-55
2022/10/23 10:18:28;;;;;;;3.58;3.20;;;21.50;98.40;;;;;;5011635;28;20193;-55
2022/10/23 10:21:08;;;;;;;2.78;2.58;;;21.50;97.50;;;;;;5010979;28;20679;-55
2022/10/23 10:23:54;;;;;;;3.10;2.80;;;21.90;96.80;;;;;;5005702;28;20191;-55
2022/10/23 10:26:57;;;;;;;2.90;2.70;;;22.40;96.30;;;;;;5001778;28;20191;-55
2022/10/23 10:29:41;;;;;;;2.70;2.50;;;22.70;95.70;;;;;;5005812;28;20476;-54
2022/10/23 10:32:12;;;;;;;2.40;2.20;;;22.90;95.20;;;;;;5008649;28;20465;-55
2022/10/23 10:35:42;;;;;;;2.13;1.83;;;23.40;94.60;;;;;;5010815;28;20486;-54
2022/10/23 10:38:14;;;;;;;5.13;1.63;;;24.30;92.90;;;;;;4946956;28;20438;-54
2022/10/23 10:40:49;;;;;;;1.30;1.20;;;24.60;91.90;;;;;;5010781;28;20447;-55
2022/10/23 10:44:02;;;;;;;1.27;1.17;;;24.60;90.20;;;;;;5002783;28;20459;-54
2022/10/23 10:46:45;;;;;;;2.33;1.50;;;25.00;89.00;;;;;;5008600;28;20448;-55
2022/10/23 10:49:31;;;;;;;1.20;1.00;;;25.50;88.60;;;;;;5007456;28;20462;-55
2022/10/23 10:52:15;;;;;;;1.40;1.20;;;25.60;86.30;;;;;;5009914;28;20459;-55
2022/10/23 10:55:15;;;;;;;5.17;1.63;;;25.20;87.70;;;;;;5007468;28;20471;-54
2022/10/23 10:58:20;;;;;;;2.80;1.43;;;25.00;89.40;;;;;;5000573;28;20477;-54
2022/10/23 11:00:51;;;;;;;1.60;1.50;;;24.40;88.20;;;;;;5002280;28;20578;-55
2022/10/23 11:03:40;;;;;;;1.30;1.20;;;24.10;90.00;;;;;;5003957;28;20446;-55
2022/10/23 11:06:13;;;;;;;2.40;1.47;;;23.80;89.80;;;;;;5004906;28;20977;-55
2022/10/23 11:08:40;;;;;;;3.83;3.20;;;23.60;91.00;;;;;;5019804;28;20942;-55
2022/10/23 11:11:36;;;;;;;1.00;1.00;;;23.60;91.70;;;;;;5004821;28;20450;-55
2022/10/23 11:14:02;;;;;;;1.10;1.00;;;23.50;90.10;;;;;;5010531;28;20500;-55
2022/10/23 11:16:38;;;;;;;3.20;1.50;;;23.50;90.10;;;;;;5013563;28;20790;-55
2022/10/23 11:19:19;;;;;;;2.20;1.60;;;23.40;90.80;;;;;;5011133;28;20218;-55
2022/10/23 11:22:02;;;;;;;2.43;1.47;;;23.40;90.60;;;;;;4986076;28;20481;-55
2022/10/23 11:24:34;;;;;;;3.53;2.50;;;23.30;90.60;;;;;;5009002;28;20461;-55
2022/10/23 11:27:35;;;;;;;3.07;2.10;;;23.20;91.30;;;;;;5008805;28;20617;-56
2022/10/23 11:30:23;;;;;;;2.37;1.53;;;23.40;91.90;;;;;;5005744;28;20437;-55
2022/10/23 11:33:13;;;;;;;1.97;1.50;;;23.50;92.20;;;;;;5007596;28;20466;-55
2022/10/23 11:36:13;;;;;;;1.70;1.30;;;23.60;92.50;;;;;;5008458;28;20497;-55
2022/10/23 11:39:18;;;;;;;2.07;1.40;;;23.60;92.70;;;;;;4994255;28;20509;-55
2022/10/23 11:41:54;;;;;;;2.80;1.70;;;23.50;93.20;;;;;;4993199;28;20918;-55
2022/10/23 11:45:06;;;;;;;4.90;2.20;;;23.50;93.60;;;;;;5006418;28;20457;-54
2022/10/23 11:47:56;;;;;;;4.67;1.73;;;23.50;94.10;;;;;;5011659;28;20537;-54
2022/10/23 11:50:32;;;;;;;1.73;1.47;;;23.30;94.90;;;;;;5005505;28;20496;-55
2022/10/23 11:53:21;;;;;;;1.93;1.70;;;23.30;94.10;;;;;;5004478;28;20635;-54
2022/10/23 11:55:58;;;;;;;2.17;1.90;;;23.30;94.50;;;;;;5010712;28;20460;-55
2022/10/23 11:58:40;;;;;;;3.57;1.80;;;23.30;94.30;;;;;;5003600;28;20445;-55
2022/10/23 12:01:24;;;;;;;1.87;1.47;;;23.20;94.20;;;;;;5005079;28;20425;-54
2022/10/23 12:04:45;;;;;;;1.50;1.40;;;23.20;94.10;;;;;;5002247;28;20540;-55
2022/10/23 12:07:24;;;;;;;2.77;2.50;;;23.40;94.00;;;;;;5004309;28;21120;-55
2022/10/23 12:10:28;;;;;;;2.30;2.10;;;23.30;94.30;;;;;;5005942;28;20449;-54
2022/10/23 12:13:03;;;;;;;5.07;2.70;;;23.30;94.10;;;;;;4887758;29;20572;-55
2022/10/23 12:15:30;;;;;;;2.60;1.50;;;23.30;94.60;;;;;;4996456;28;20507;-55
2022/10/23 12:18:12;;;;;;;1.97;1.70;;;23.30;93.80;;;;;;5006406;28;20439;-55
2022/10/23 12:20:44;;;;;;;1.87;1.73;;;23.30;93.90;;;;;;5006108;28;20862;-55
2022/10/23 12:23:39;;;;;;;2.80;1.70;;;23.40;94.20;;;;;;5008282;28;20441;-55
2022/10/23 12:26:34;;;;;;;2.87;1.80;;;23.40;94.30;;;;;;4977824;28;20430;-55
2022/10/23 12:29:30;;;;;;;2.30;2.10;;;23.50;94.80;;;;;;5009138;28;20485;-55
2022/10/23 12:32:17;;;;;;;2.20;1.60;;;23.60;94.80;;;;;;5008458;28;20440;-55
2022/10/23 12:35:24;;;;;;;2.60;2.40;;;23.40;93.60;;;;;;5010802;28;20511;-55
2022/10/23 12:38:19;;;;;;;3.10;1.70;;;23.50;94.00;;;;;;5010503;28;20451;-55
2022/10/23 12:40:50;;;;;;;2.10;1.87;;;23.40;93.90;;;;;;5007003;28;20858;-55
2022/10/23 12:43:41;;;;;;;2.80;2.60;;;23.40;94.30;;;;;;5005642;28;20449;-55
2022/10/23 12:46:48;;;;;;;4.27;3.87;;;23.40;94.30;;;;;;5008095;28;20453;-55
2022/10/23 12:49:18;;;;;;;4.30;3.10;;;23.60;94.90;;;;;;5008039;28;20874;-54
2022/10/23 12:51:44;;;;;;;4.40;3.30;;;23.70;94.50;;;;;;5008963;28;20515;-54
2022/10/23 12:54:40;;;;;;;3.50;3.20;;;23.70;93.80;;;;;;5006173;28;20473;-55
2022/10/23 12:57:24;;;;;;;3.40;2.37;;;24.40;94.50;;;;;;5008153;28;20520;-54
2022/10/23 12:59:56;;;;;;;2.73;2.40;;;23.90;94.80;;;;;;5018354;28;20449;-55
2022/10/23 13:02:42;;;;;;;6.03;2.30;;;24.00;94.70;;;;;;5009884;28;20477;-55
2022/10/23 13:05:13;;;;;;;2.47;1.93;;;24.10;94.50;;;;;;5008751;28;20445;-54
2022/10/23 13:08:22;;;;;;;3.43;2.50;;;24.00;93.60;;;;;;5011939;28;21040;-55
2022/10/23 13:10:49;;;;;;;2.23;1.83;;;23.90;93.60;;;;;;5012832;28;20507;-55
2022/10/23 13:13:34;;;;;;;2.30;1.50;;;23.90;93.50;;;;;;5009283;28;20484;-54
2022/10/23 13:16:00;;;;;;;2.50;2.30;;;23.70;93.10;;;;;;5013503;28;20456;-54
2022/10/23 13:18:25;;;;;;;5.63;2.87;;;23.60;93.60;;;;;;5000493;28;20445;-54
2022/10/23 13:20:51;;;;;;;3.40;3.10;;;23.50;94.30;;;;;;5014880;28;20218;-55